Manchester Airport

EGCC · 英格兰, 英国

罗盘
风向 的 风向 的 风向 到 风向 270° 曼彻斯特机场 5R/23L
风: 5 kt, 2 beaufort

4 kt

3 kt
改变
0 ft 1.000 2.000 3.000 4.000 5.000
CAVOK
METAR EGCC 200950Z 27005KT 200V320 CAVOK 08/00 Q1030 NOSIG

METAR 曼彻斯特机场 - EGCC/MAN

曼彻斯特机场是,英国中的大型机场。 该机场位于纬度53,34715和经度-2,28388。 该机场有2条跑道: 5R/23L 和 5L/23R. 本场的ICAO机场代码为EGCC。 该机场的IATA代码为MAN。 机场在London FIR中。

该航空气象观测是针对曼彻斯特机场在2024年4月20日 10:50, 当地时间进行的。

机场观察

风向为270°,速度为5 kt。 风向在200°和320°之间变化。

天气为CAVOK。这意味着在5.000 ft或MSA(最低安全高度)以下(以较高者为准)以下没有云。这也意味着没有观测到积雨云或高耸的积云,可见度为10 km 或者更多或更高。此外,不会有雾,降雨或其他重要天气。

温度为8 °C,阵风为5 °C。 海平面上的气压为1030 hPa (QNH)。

白天

今天,太阳从05:56升起,在20:19降落。 这适用于曼彻斯特机场,世界夏令时可能有所不同。 当地时间与世界标准时间之间的时差为+1 小时。 夏令时目前正在进行中。

公司介绍

我们没有关于这个机场的公司信息。

体会

到Vliegles.nl去找飞行课程,跳伞和其他飞行体验。 浏览页面,了解曼彻斯特机场附近所有可用的活动。 你也可以使用搜索功能来寻找你所在地附近的特定飞行课程、跳伞或其他飞行体验。

请勿用于飞行规划
机场可能关闭或需要事先获得许可。 真正的航向和跑道末端的坐标可能是一个估计值。 磁性航向是使用WMM2020模型从真实航向计算出来的。

跑道

Id 标题 侧风 逆风 侧风 %
5R/23L 051°-231° 3 kt 4 kt 63 %
5L/23R 051°-231° 3 kt 4 kt 63 %

逆风成分最大的方向会被突出显示,并用于横风计算。 这并不一定意味着这个方向在使用。

温度 & 天气

温度 8 °C
露点 0 °C
相对湿度 57%
风寒 5 °C
Kp-index 2 (0-9)

白天

日出
05:56
中午
13:07
日落
20:19 (9:02)

小工具

你想在你的网站上有一个关于曼彻斯特机场的当前航空天气(METAR)的小部件吗?

显示HTML代码
报告变更